sensor_id;sensor_type;location;lat;lon;timestamp;temperature;humidity
8707;DHT22;4390;49.302;9.306;2023-05-24T00:00:41;14.00;88.70
8707;DHT22;4390;49.302;9.306;2023-05-24T00:03:09;14.10;88.40
8707;DHT22;4390;49.302;9.306;2023-05-24T00:05:36;14.10;87.90
8707;DHT22;4390;49.302;9.306;2023-05-24T00:08:08;14.00;87.80
8707;DHT22;4390;49.302;9.306;2023-05-24T00:10:35;14.00;87.50
8707;DHT22;4390;49.302;9.306;2023-05-24T00:13:02;13.80;87.50
8707;DHT22;4390;49.302;9.306;2023-05-24T00:15:29;13.70;87.70
8707;DHT22;4390;49.302;9.306;2023-05-24T00:17:56;13.50;87.80
8707;DHT22;4390;49.302;9.306;2023-05-24T00:20:23;13.20;88.40
8707;DHT22;4390;49.302;9.306;2023-05-24T00:22:50;13.20;89.00
8707;DHT22;4390;49.302;9.306;2023-05-24T00:25:21;13.30;88.60
8707;DHT22;4390;49.302;9.306;2023-05-24T00:27:47;13.30;88.40
8707;DHT22;4390;49.302;9.306;2023-05-24T00:30:14;13.50;88.10
8707;DHT22;4390;49.302;9.306;2023-05-24T00:32:41;13.50;87.70
8707;DHT22;4390;49.302;9.306;2023-05-24T00:35:09;13.50;87.70
8707;DHT22;4390;49.302;9.306;2023-05-24T00:37:37;13.50;87.10
8707;DHT22;4390;49.302;9.306;2023-05-24T00:40:06;13.30;87.40
8707;DHT22;4390;49.302;9.306;2023-05-24T00:42:36;13.20;87.70
8707;DHT22;4390;49.302;9.306;2023-05-24T00:45:03;13.00;88.10
8707;DHT22;4390;49.302;9.306;2023-05-24T00:47:32;13.10;87.90
8707;DHT22;4390;49.302;9.306;2023-05-24T00:49:59;13.00;88.00
8707;DHT22;4390;49.302;9.306;2023-05-24T00:52:27;12.90;88.00
8707;DHT22;4390;49.302;9.306;2023-05-24T00:54:54;12.80;88.30
8707;DHT22;4390;49.302;9.306;2023-05-24T00:57:21;12.70;88.60
8707;DHT22;4390;49.302;9.306;2023-05-24T00:59:50;12.60;89.00
8707;DHT22;4390;49.302;9.306;2023-05-24T01:02:16;12.70;89.00
8707;DHT22;4390;49.302;9.306;2023-05-24T01:04:46;12.80;89.10
8707;DHT22;4390;49.302;9.306;2023-05-24T01:18:19;12.20;90.30
8707;DHT22;4390;49.302;9.306;2023-05-24T01:23:58;12.30;90.20
8707;DHT22;4390;49.302;9.306;2023-05-24T01:26:39;12.40;89.70
8707;DHT22;4390;49.302;9.306;2023-05-24T01:29:09;12.30;90.00
8707;DHT22;4390;49.302;9.306;2023-05-24T01:31:37;12.30;90.00
8707;DHT22;4390;49.302;9.306;2023-05-24T01:34:04;12.40;90.40
8707;DHT22;4390;49.302;9.306;2023-05-24T01:36:31;12.40;90.00
8707;DHT22;4390;49.302;9.306;2023-05-24T01:38:58;12.50;90.00
8707;DHT22;4390;49.302;9.306;2023-05-24T01:41:45;12.60;89.60
8707;DHT22;4390;49.302;9.306;2023-05-24T01:49:49;12.90;88.90
8707;DHT22;4390;49.302;9.306;2023-05-24T01:52:18;12.90;89.00
8707;DHT22;4390;49.302;9.306;2023-05-24T01:54:57;12.80;89.10
8707;DHT22;4390;49.302;9.306;2023-05-24T01:57:26;12.80;89.10
8707;DHT22;4390;49.302;9.306;2023-05-24T01:59:54;12.80;89.00
8707;DHT22;4390;49.302;9.306;2023-05-24T02:02:22;12.80;88.80
8707;DHT22;4390;49.302;9.306;2023-05-24T02:04:50;12.70;88.90
8707;DHT22;4390;49.302;9.306;2023-05-24T02:07:18;12.70;89.00
8707;DHT22;4390;49.302;9.306;2023-05-24T02:09:45;12.80;88.60
8707;DHT22;4390;49.302;9.306;2023-05-24T02:12:12;12.70;88.80
8707;DHT22;4390;49.302;9.306;2023-05-24T02:14:38;12.70;89.20
8707;DHT22;4390;49.302;9.306;2023-05-24T02:17:08;12.70;89.10
8707;DHT22;4390;49.302;9.306;2023-05-24T02:19:35;12.50;89.40
8707;DHT22;4390;49.302;9.306;2023-05-24T02:22:04;12.60;89.30
8707;DHT22;4390;49.302;9.306;2023-05-24T02:24:32;12.60;89.20
8707;DHT22;4390;49.302;9.306;2023-05-24T02:26:59;12.60;88.80
8707;DHT22;4390;49.302;9.306;2023-05-24T02:29:26;12.70;88.90
8707;DHT22;4390;49.302;9.306;2023-05-24T02:31:53;12.70;88.50
8707;DHT22;4390;49.302;9.306;2023-05-24T02:34:23;12.70;88.80
8707;DHT22;4390;49.302;9.306;2023-05-24T02:36:50;12.80;88.20
8707;DHT22;4390;49.302;9.306;2023-05-24T02:39:19;12.60;88.70
8707;DHT22;4390;49.302;9.306;2023-05-24T02:41:47;12.40;88.50
8707;DHT22;4390;49.302;9.306;2023-05-24T02:44:14;12.40;88.70
8707;DHT22;4390;49.302;9.306;2023-05-24T02:46:41;12.30;88.80
8707;DHT22;4390;49.302;9.306;2023-05-24T02:49:08;12.10;88.90
8707;DHT22;4390;49.302;9.306;2023-05-24T02:51:36;11.90;89.40
8707;DHT22;4390;49.302;9.306;2023-05-24T02:54:03;11.70;89.80
8707;DHT22;4390;49.302;9.306;2023-05-24T02:56:29;11.60;90.10
8707;DHT22;4390;49.302;9.306;2023-05-24T02:58:57;11.70;89.90
8707;DHT22;4390;49.302;9.306;2023-05-24T03:01:28;11.70;89.80
8707;DHT22;4390;49.302;9.306;2023-05-24T03:03:58;11.70;89.80
8707;DHT22;4390;49.302;9.306;2023-05-24T03:06:25;11.60;89.80
8707;DHT22;4390;49.302;9.306;2023-05-24T03:08:52;11.60;90.00
8707;DHT22;4390;49.302;9.306;2023-05-24T03:11:19;11.60;89.80
8707;DHT22;4390;49.302;9.306;2023-05-24T03:13:48;11.50;89.80
8707;DHT22;4390;49.302;9.306;2023-05-24T03:16:15;11.50;90.00
8707;DHT22;4390;49.302;9.306;2023-05-24T03:18:46;11.60;89.70
8707;DHT22;4390;49.302;9.306;2023-05-24T03:21:13;11.70;89.40
8707;DHT22;4390;49.302;9.306;2023-05-24T03:23:41;11.60;89.80
8707;DHT22;4390;49.302;9.306;2023-05-24T03:26:08;11.70;90.10
8707;DHT22;4390;49.302;9.306;2023-05-24T03:28:35;11.80;90.20
8707;DHT22;4390;49.302;9.306;2023-05-24T03:31:03;12.00;89.80
8707;DHT22;4390;49.302;9.306;2023-05-24T03:33:30;12.20;89.30
8707;DHT22;4390;49.302;9.306;2023-05-24T03:35:57;12.00;89.40
8707;DHT22;4390;49.302;9.306;2023-05-24T03:38:25;12.20;89.30
8707;DHT22;4390;49.302;9.306;2023-05-24T03:40:52;12.20;88.90
8707;DHT22;4390;49.302;9.306;2023-05-24T03:43:18;12.20;88.90
8707;DHT22;4390;49.302;9.306;2023-05-24T03:45:50;12.10;89.10
8707;DHT22;4390;49.302;9.306;2023-05-24T03:48:18;12.30;89.00
8707;DHT22;4390;49.302;9.306;2023-05-24T03:50:46;12.50;88.80
8707;DHT22;4390;49.302;9.306;2023-05-24T03:53:14;12.50;87.90
8707;DHT22;4390;49.302;9.306;2023-05-24T03:55:42;12.40;88.00
8707;DHT22;4390;49.302;9.306;2023-05-24T03:58:13;12.40;88.20
8707;DHT22;4390;49.302;9.306;2023-05-24T04:00:39;12.30;88.20
8707;DHT22;4390;49.302;9.306;2023-05-24T04:03:07;12.30;88.10
8707;DHT22;4390;49.302;9.306;2023-05-24T04:05:34;12.30;88.60
8707;DHT22;4390;49.302;9.306;2023-05-24T04:08:04;12.30;88.50
8707;DHT22;4390;49.302;9.306;2023-05-24T04:10:30;12.40;88.70
8707;DHT22;4390;49.302;9.306;2023-05-24T04:12:59;12.40;88.40
8707;DHT22;4390;49.302;9.306;2023-05-24T04:15:26;12.20;88.70
8707;DHT22;4390;49.302;9.306;2023-05-24T04:17:53;12.20;88.70
8707;DHT22;4390;49.302;9.306;2023-05-24T04:20:22;12.30;88.80
8707;DHT22;4390;49.302;9.306;2023-05-24T04:22:51;12.30;88.60
8707;DHT22;4390;49.302;9.306;2023-05-24T04:25:18;12.10;89.00
8707;DHT22;4390;49.302;9.306;2023-05-24T04:27:46;12.00;89.30
8707;DHT22;4390;49.302;9.306;2023-05-24T04:30:16;11.90;89.60
8707;DHT22;4390;49.302;9.306;2023-05-24T04:32:43;12.00;89.30
8707;DHT22;4390;49.302;9.306;2023-05-24T04:35:10;12.00;89.60
8707;DHT22;4390;49.302;9.306;2023-05-24T04:37:37;11.80;89.80
8707;DHT22;4390;49.302;9.306;2023-05-24T04:40:07;11.80;89.90
8707;DHT22;4390;49.302;9.306;2023-05-24T04:42:34;12.10;89.50
8707;DHT22;4390;49.302;9.306;2023-05-24T04:45:04;12.10;89.20
8707;DHT22;4390;49.302;9.306;2023-05-24T04:47:31;11.80;89.80
8707;DHT22;4390;49.302;9.306;2023-05-24T04:49:58;11.80;90.30
8707;DHT22;4390;49.302;9.306;2023-05-24T04:52:25;12.00;90.10
8707;DHT22;4390;49.302;9.306;2023-05-24T04:54:53;12.10;89.60
8707;DHT22;4390;49.302;9.306;2023-05-24T04:57:21;12.30;89.30
8707;DHT22;4390;49.302;9.306;2023-05-24T04:59:51;12.30;89.10
8707;DHT22;4390;49.302;9.306;2023-05-24T05:02:21;12.20;89.30
8707;DHT22;4390;49.302;9.306;2023-05-24T05:04:48;12.20;89.10
8707;DHT22;4390;49.302;9.306;2023-05-24T05:07:16;12.30;89.00
8707;DHT22;4390;49.302;9.306;2023-05-24T05:09:43;12.50;88.70
8707;DHT22;4390;49.302;9.306;2023-05-24T05:12:14;12.50;88.50
8707;DHT22;4390;49.302;9.306;2023-05-24T05:14:42;12.60;88.70
8707;DHT22;4390;49.302;9.306;2023-05-24T05:17:10;12.50;88.40
8707;DHT22;4390;49.302;9.306;2023-05-24T05:19:36;12.40;88.40
8707;DHT22;4390;49.302;9.306;2023-05-24T05:22:06;12.40;88.90
8707;DHT22;4390;49.302;9.306;2023-05-24T05:24:39;12.20;89.40
8707;DHT22;4390;49.302;9.306;2023-05-24T05:27:06;12.10;89.70
8707;DHT22;4390;49.302;9.306;2023-05-24T05:29:33;12.20;89.20
8707;DHT22;4390;49.302;9.306;2023-05-24T05:32:00;12.20;89.10
8707;DHT22;4390;49.302;9.306;2023-05-24T05:34:27;12.30;89.00
8707;DHT22;4390;49.302;9.306;2023-05-24T05:36:57;12.20;89.00
8707;DHT22;4390;49.302;9.306;2023-05-24T05:39:24;12.20;88.90
8707;DHT22;4390;49.302;9.306;2023-05-24T05:41:51;12.10;89.10
8707;DHT22;4390;49.302;9.306;2023-05-24T05:44:19;11.90;89.30
8707;DHT22;4390;49.302;9.306;2023-05-24T05:46:45;11.80;90.10
8707;DHT22;4390;49.302;9.306;2023-05-24T05:49:12;12.00;89.40
8707;DHT22;4390;49.302;9.306;2023-05-24T05:51:41;12.20;89.10
8707;DHT22;4390;49.302;9.306;2023-05-24T05:54:08;12.20;88.70
8707;DHT22;4390;49.302;9.306;2023-05-24T05:56:40;12.10;88.90
8707;DHT22;4390;49.302;9.306;2023-05-24T05:59:11;12.00;89.00
8707;DHT22;4390;49.302;9.306;2023-05-24T06:01:39;12.10;89.20
8707;DHT22;4390;49.302;9.306;2023-05-24T06:04:08;12.00;88.80
8707;DHT22;4390;49.302;9.306;2023-05-24T06:06:36;11.90;89.10
8707;DHT22;4390;49.302;9.306;2023-05-24T06:09:03;11.70;89.30
8707;DHT22;4390;49.302;9.306;2023-05-24T06:11:30;11.50;89.50
8707;DHT22;4390;49.302;9.306;2023-05-24T06:14:00;11.60;89.90
8707;DHT22;4390;49.302;9.306;2023-05-24T06:16:27;11.70;89.60
8707;DHT22;4390;49.302;9.306;2023-05-24T06:18:54;11.60;90.00
8707;DHT22;4390;49.302;9.306;2023-05-24T06:21:31;11.80;89.40
8707;DHT22;4390;49.302;9.306;2023-05-24T06:23:58;11.70;89.40
8707;DHT22;4390;49.302;9.306;2023-05-24T06:26:28;11.60;89.70
8707;DHT22;4390;49.302;9.306;2023-05-24T06:28:55;11.70;89.90
8707;DHT22;4390;49.302;9.306;2023-05-24T06:31:22;11.90;89.40
8707;DHT22;4390;49.302;9.306;2023-05-24T06:33:49;11.80;89.40
8707;DHT22;4390;49.302;9.306;2023-05-24T06:36:28;11.70;89.50
8707;DHT22;4390;49.302;9.306;2023-05-24T06:38:55;11.80;89.50
8707;DHT22;4390;49.302;9.306;2023-05-24T06:41:22;11.80;89.00
8707;DHT22;4390;49.302;9.306;2023-05-24T06:43:49;11.90;89.20
8707;DHT22;4390;49.302;9.306;2023-05-24T06:46:16;11.90;89.30
8707;DHT22;4390;49.302;9.306;2023-05-24T06:48:43;12.00;89.00
8707;DHT22;4390;49.302;9.306;2023-05-24T06:51:10;11.90;88.80
8707;DHT22;4390;49.302;9.306;2023-05-24T06:53:37;11.90;89.40
8707;DHT22;4390;49.302;9.306;2023-05-24T06:56:04;11.90;89.20
8707;DHT22;4390;49.302;9.306;2023-05-24T06:58:31;11.80;89.50
8707;DHT22;4390;49.302;9.306;2023-05-24T07:00:57;11.90;89.70
8707;DHT22;4390;49.302;9.306;2023-05-24T07:03:24;12.10;89.30
8707;DHT22;4390;49.302;9.306;2023-05-24T07:05:51;12.30;89.10
8707;DHT22;4390;49.302;9.306;2023-05-24T07:08:18;12.50;88.70
8707;DHT22;4390;49.302;9.306;2023-05-24T07:10:45;12.60;88.20
8707;DHT22;4390;49.302;9.306;2023-05-24T07:13:12;12.80;88.00
8707;DHT22;4390;49.302;9.306;2023-05-24T07:15:42;13.00;87.30
8707;DHT22;4390;49.302;9.306;2023-05-24T07:18:09;12.90;87.00
8707;DHT22;4390;49.302;9.306;2023-05-24T07:20:36;12.80;87.00
8707;DHT22;4390;49.302;9.306;2023-05-24T07:23:03;12.90;87.60
8707;DHT22;4390;49.302;9.306;2023-05-24T07:25:30;13.00;87.10
8707;DHT22;4390;49.302;9.306;2023-05-24T07:28:01;13.00;86.90
8707;DHT22;4390;49.302;9.306;2023-05-24T07:30:28;12.90;86.50
8707;DHT22;4390;49.302;9.306;2023-05-24T07:32:58;12.80;87.30
8707;DHT22;4390;49.302;9.306;2023-05-24T07:35:25;12.70;87.20
8707;DHT22;4390;49.302;9.306;2023-05-24T07:37:54;12.80;87.40
8707;DHT22;4390;49.302;9.306;2023-05-24T07:40:21;12.70;86.80
8707;DHT22;4390;49.302;9.306;2023-05-24T07:42:48;12.60;86.90
8707;DHT22;4390;49.302;9.306;2023-05-24T07:45:15;12.70;87.10
8707;DHT22;4390;49.302;9.306;2023-05-24T07:47:42;12.80;87.00
8707;DHT22;4390;49.302;9.306;2023-05-24T07:50:09;12.90;86.70
8707;DHT22;4390;49.302;9.306;2023-05-24T07:52:37;12.90;86.80
8707;DHT22;4390;49.302;9.306;2023-05-24T07:55:04;12.90;86.50
8707;DHT22;4390;49.302;9.306;2023-05-24T07:57:32;13.00;86.50
8707;DHT22;4390;49.302;9.306;2023-05-24T07:59:59;12.70;86.50
8707;DHT22;4390;49.302;9.306;2023-05-24T08:02:37;12.60;86.70
8707;DHT22;4390;49.302;9.306;2023-05-24T08:05:04;12.70;87.30
8707;DHT22;4390;49.302;9.306;2023-05-24T08:07:34;12.90;86.60
8707;DHT22;4390;49.302;9.306;2023-05-24T08:10:02;12.90;86.20
8707;DHT22;4390;49.302;9.306;2023-05-24T08:12:29;12.80;86.10
8707;DHT22;4390;49.302;9.306;2023-05-24T08:14:57;12.80;86.70
8707;DHT22;4390;49.302;9.306;2023-05-24T08:17:23;13.00;86.50
8707;DHT22;4390;49.302;9.306;2023-05-24T08:19:50;13.10;86.30
8707;DHT22;4390;49.302;9.306;2023-05-24T08:22:18;13.30;86.00
8707;DHT22;4390;49.302;9.306;2023-05-24T08:24:45;13.30;85.90
8707;DHT22;4390;49.302;9.306;2023-05-24T08:27:12;13.40;85.50
8707;DHT22;4390;49.302;9.306;2023-05-24T08:29:39;13.50;84.90
8707;DHT22;4390;49.302;9.306;2023-05-24T08:32:07;13.60;85.00
8707;DHT22;4390;49.302;9.306;2023-05-24T08:34:35;13.60;84.80
8707;DHT22;4390;49.302;9.306;2023-05-24T08:37:03;13.70;84.70
8707;DHT22;4390;49.302;9.306;2023-05-24T08:39:31;13.70;84.80
8707;DHT22;4390;49.302;9.306;2023-05-24T08:41:58;13.70;84.60
8707;DHT22;4390;49.302;9.306;2023-05-24T08:44:38;13.70;84.80
8707;DHT22;4390;49.302;9.306;2023-05-24T08:47:08;13.70;84.80
8707;DHT22;4390;49.302;9.306;2023-05-24T08:49:37;13.80;84.60
8707;DHT22;4390;49.302;9.306;2023-05-24T08:52:05;13.90;84.20
8707;DHT22;4390;49.302;9.306;2023-05-24T08:54:36;14.00;83.60
8707;DHT22;4390;49.302;9.306;2023-05-24T08:57:04;14.00;83.90
8707;DHT22;4390;49.302;9.306;2023-05-24T08:59:32;14.10;83.40
8707;DHT22;4390;49.302;9.306;2023-05-24T09:01:59;14.20;83.30
8707;DHT22;4390;49.302;9.306;2023-05-24T09:04:28;14.40;83.60
8707;DHT22;4390;49.302;9.306;2023-05-24T09:06:56;14.60;82.90
8707;DHT22;4390;49.302;9.306;2023-05-24T09:09:26;14.80;82.40
8707;DHT22;4390;49.302;9.306;2023-05-24T09:11:56;15.00;82.30
8707;DHT22;4390;49.302;9.306;2023-05-24T09:14:24;15.20;82.10
8707;DHT22;4390;49.302;9.306;2023-05-24T09:16:51;15.30;81.70
8707;DHT22;4390;49.302;9.306;2023-05-24T09:19:19;15.20;81.50
8707;DHT22;4390;49.302;9.306;2023-05-24T09:21:48;15.30;81.50
8707;DHT22;4390;49.302;9.306;2023-05-24T09:24:15;15.00;81.30
8707;DHT22;4390;49.302;9.306;2023-05-24T09:26:42;14.80;82.60
8707;DHT22;4390;49.302;9.306;2023-05-24T09:29:09;14.70;83.00
8707;DHT22;4390;49.302;9.306;2023-05-24T09:31:38;14.80;82.60
8707;DHT22;4390;49.302;9.306;2023-05-24T09:34:09;14.60;82.50
8707;DHT22;4390;49.302;9.306;2023-05-24T09:36:39;14.60;82.70
8707;DHT22;4390;49.302;9.306;2023-05-24T09:39:09;14.80;82.70
8707;DHT22;4390;49.302;9.306;2023-05-24T09:41:37;14.90;82.00
8707;DHT22;4390;49.302;9.306;2023-05-24T09:44:05;15.10;82.30
8707;DHT22;4390;49.302;9.306;2023-05-24T09:46:38;15.30;81.70
8707;DHT22;4390;49.302;9.306;2023-05-24T09:49:04;15.70;81.40
8707;DHT22;4390;49.302;9.306;2023-05-24T09:51:38;15.80;80.60
8707;DHT22;4390;49.302;9.306;2023-05-24T09:54:05;15.90;80.60
8707;DHT22;4390;49.302;9.306;2023-05-24T09:56:32;16.00;80.10
8707;DHT22;4390;49.302;9.306;2023-05-24T09:59:07;16.30;80.70
8707;DHT22;4390;49.302;9.306;2023-05-24T10:01:34;16.50;79.90
8707;DHT22;4390;49.302;9.306;2023-05-24T10:04:02;16.50;80.20
8707;DHT22;4390;49.302;9.306;2023-05-24T10:06:35;16.60;79.60
8707;DHT22;4390;49.302;9.306;2023-05-24T10:09:04;16.70;79.70
8707;DHT22;4390;49.302;9.306;2023-05-24T10:11:33;16.90;79.00
8707;DHT22;4390;49.302;9.306;2023-05-24T10:14:04;17.00;78.20
8707;DHT22;4390;49.302;9.306;2023-05-24T10:16:32;16.80;77.60
8707;DHT22;4390;49.302;9.306;2023-05-24T10:18:59;16.70;78.50
8707;DHT22;4390;49.302;9.306;2023-05-24T10:21:27;16.50;78.50
8707;DHT22;4390;49.302;9.306;2023-05-24T10:23:58;16.40;78.40
8707;DHT22;4390;49.302;9.306;2023-05-24T10:26:28;16.30;78.70
8707;DHT22;4390;49.302;9.306;2023-05-24T10:29:03;16.40;78.70
8707;DHT22;4390;49.302;9.306;2023-05-24T10:31:33;16.70;78.80
8707;DHT22;4390;49.302;9.306;2023-05-24T10:34:03;17.10;78.10
8707;DHT22;4390;49.302;9.306;2023-05-24T10:36:34;17.10;77.20
8707;DHT22;4390;49.302;9.306;2023-05-24T10:39:02;17.30;77.50
8707;DHT22;4390;49.302;9.306;2023-05-24T10:41:38;17.40;76.70
8707;DHT22;4390;49.302;9.306;2023-05-24T10:44:10;17.30;77.00
8707;DHT22;4390;49.302;9.306;2023-05-24T10:47:01;17.60;76.80
8707;DHT22;4390;49.302;9.306;2023-05-24T10:49:30;17.90;75.90
8707;DHT22;4390;49.302;9.306;2023-05-24T10:52:01;18.00;75.50
8707;DHT22;4390;49.302;9.306;2023-05-24T10:54:32;17.90;75.00
8707;DHT22;4390;49.302;9.306;2023-05-24T10:57:00;18.00;76.40
8707;DHT22;4390;49.302;9.306;2023-05-24T10:59:36;18.30;76.30
8707;DHT22;4390;49.302;9.306;2023-05-24T11:02:10;18.60;74.80
8707;DHT22;4390;49.302;9.306;2023-05-24T11:04:45;18.70;74.40
8707;DHT22;4390;49.302;9.306;2023-05-24T11:07:13;18.70;74.30
8707;DHT22;4390;49.302;9.306;2023-05-24T11:09:42;18.70;73.90
8707;DHT22;4390;49.302;9.306;2023-05-24T11:12:14;18.60;73.70
8707;DHT22;4390;49.302;9.306;2023-05-24T11:14:47;18.90;74.80
8707;DHT22;4390;49.302;9.306;2023-05-24T11:17:15;19.00;74.30
8707;DHT22;4390;49.302;9.306;2023-05-24T11:19:49;18.90;73.20
8707;DHT22;4390;49.302;9.306;2023-05-24T11:22:24;18.70;73.90
8707;DHT22;4390;49.302;9.306;2023-05-24T11:24:58;18.70;73.90
8707;DHT22;4390;49.302;9.306;2023-05-24T11:27:30;18.50;72.40
8707;DHT22;4390;49.302;9.306;2023-05-24T11:29:59;17.90;73.90
8707;DHT22;4390;49.302;9.306;2023-05-24T11:32:27;18.00;74.80
8707;DHT22;4390;49.302;9.306;2023-05-24T11:34:54;18.00;73.20
8707;DHT22;4390;49.302;9.306;2023-05-24T11:37:22;18.20;73.40
8707;DHT22;4390;49.302;9.306;2023-05-24T11:40:11;18.50;73.40
8707;DHT22;4390;49.302;9.306;2023-05-24T11:42:38;19.00;72.40
8707;DHT22;4390;49.302;9.306;2023-05-24T11:45:07;19.00;71.00
8707;DHT22;4390;49.302;9.306;2023-05-24T11:47:38;19.00;71.50
8707;DHT22;4390;49.302;9.306;2023-05-24T11:50:06;19.50;71.30
8707;DHT22;4390;49.302;9.306;2023-05-24T11:52:38;19.60;70.70
8707;DHT22;4390;49.302;9.306;2023-05-24T11:55:06;19.50;70.60
8707;DHT22;4390;49.302;9.306;2023-05-24T11:57:41;19.40;71.20
8707;DHT22;4390;49.302;9.306;2023-05-24T12:00:09;19.20;72.10
8707;DHT22;4390;49.302;9.306;2023-05-24T12:02:43;19.00;71.30
8707;DHT22;4390;49.302;9.306;2023-05-24T12:05:13;18.50;71.70
8707;DHT22;4390;49.302;9.306;2023-05-24T12:07:58;18.20;72.40
8707;DHT22;4390;49.302;9.306;2023-05-24T12:10:33;17.80;72.20
8707;DHT22;4390;49.302;9.306;2023-05-24T12:13:02;17.60;72.90
8707;DHT22;4390;49.302;9.306;2023-05-24T12:15:32;18.00;73.00
8707;DHT22;4390;49.302;9.306;2023-05-24T12:18:19;18.40;71.80
8707;DHT22;4390;49.302;9.306;2023-05-24T12:20:59;18.60;71.90
8707;DHT22;4390;49.302;9.306;2023-05-24T12:23:34;18.80;71.70
8707;DHT22;4390;49.302;9.306;2023-05-24T12:26:05;19.00;71.50
8707;DHT22;4390;49.302;9.306;2023-05-24T12:28:51;18.90;71.70
8707;DHT22;4390;49.302;9.306;2023-05-24T12:31:21;19.00;71.50
8707;DHT22;4390;49.302;9.306;2023-05-24T12:33:56;19.40;72.20
8707;DHT22;4390;49.302;9.306;2023-05-24T12:36:33;19.60;71.00
8707;DHT22;4390;49.302;9.306;2023-05-24T12:39:17;19.60;70.10
8707;DHT22;4390;49.302;9.306;2023-05-24T12:42:00;19.60;70.90
8707;DHT22;4390;49.302;9.306;2023-05-24T12:44:33;19.80;70.70
8707;DHT22;4390;49.302;9.306;2023-05-24T12:47:04;20.00;70.70
8707;DHT22;4390;49.302;9.306;2023-05-24T12:49:35;20.00;69.60
8707;DHT22;4390;49.302;9.306;2023-05-24T12:52:03;20.30;69.90
8707;DHT22;4390;49.302;9.306;2023-05-24T12:54:30;20.50;69.40
8707;DHT22;4390;49.302;9.306;2023-05-24T12:56:57;20.60;69.10
8707;DHT22;4390;49.302;9.306;2023-05-24T12:59:32;20.20;69.70
8707;DHT22;4390;49.302;9.306;2023-05-24T13:02:02;19.90;69.40
8707;DHT22;4390;49.302;9.306;2023-05-24T13:04:30;19.90;69.70
8707;DHT22;4390;49.302;9.306;2023-05-24T13:07:00;19.80;70.20
8707;DHT22;4390;49.302;9.306;2023-05-24T13:09:32;19.90;69.60
8707;DHT22;4390;49.302;9.306;2023-05-24T13:12:10;20.10;69.70
8707;DHT22;4390;49.302;9.306;2023-05-24T13:14:49;20.30;69.00
8707;DHT22;4390;49.302;9.306;2023-05-24T13:17:18;20.20;69.20
8707;DHT22;4390;49.302;9.306;2023-05-24T13:19:48;20.10;68.80
8707;DHT22;4390;49.302;9.306;2023-05-24T13:22:19;19.90;68.70
8707;DHT22;4390;49.302;9.306;2023-05-24T13:24:50;19.90;69.40
8707;DHT22;4390;49.302;9.306;2023-05-24T13:27:17;19.90;68.90
8707;DHT22;4390;49.302;9.306;2023-05-24T13:29:44;19.90;70.10
8707;DHT22;4390;49.302;9.306;2023-05-24T13:32:26;19.60;70.70
8707;DHT22;4390;49.302;9.306;2023-05-24T13:34:54;19.70;69.90
8707;DHT22;4390;49.302;9.306;2023-05-24T13:37:21;19.40;70.60
8707;DHT22;4390;49.302;9.306;2023-05-24T13:39:51;19.40;71.10
8707;DHT22;4390;49.302;9.306;2023-05-24T13:42:19;19.70;70.20
8707;DHT22;4390;49.302;9.306;2023-05-24T13:44:47;19.90;70.70
8707;DHT22;4390;49.302;9.306;2023-05-24T13:47:14;20.00;70.70
8707;DHT22;4390;49.302;9.306;2023-05-24T13:50:01;19.90;70.80
8707;DHT22;4390;49.302;9.306;2023-05-24T13:52:29;19.80;70.30
8707;DHT22;4390;49.302;9.306;2023-05-24T13:55:02;19.80;70.00
8707;DHT22;4390;49.302;9.306;2023-05-24T13:57:35;19.70;70.00
8707;DHT22;4390;49.302;9.306;2023-05-24T14:00:21;19.70;70.40
8707;DHT22;4390;49.302;9.306;2023-05-24T14:03:07;19.80;70.20
8707;DHT22;4390;49.302;9.306;2023-05-24T14:06:13;19.80;69.40
8707;DHT22;4390;49.302;9.306;2023-05-24T14:08:41;19.60;69.10
8707;DHT22;4390;49.302;9.306;2023-05-24T14:11:08;19.30;68.80
8707;DHT22;4390;49.302;9.306;2023-05-24T14:13:37;18.90;70.00
8707;DHT22;4390;49.302;9.306;2023-05-24T14:16:13;18.60;70.30
8707;DHT22;4390;49.302;9.306;2023-05-24T14:18:45;18.60;70.20
8707;DHT22;4390;49.302;9.306;2023-05-24T14:24:28;18.60;69.30
8707;DHT22;4390;49.302;9.306;2023-05-24T14:26:54;18.40;70.10
8707;DHT22;4390;49.302;9.306;2023-05-24T14:29:21;18.20;69.70
8707;DHT22;4390;49.302;9.306;2023-05-24T14:31:48;18.00;69.80
8707;DHT22;4390;49.302;9.306;2023-05-24T14:34:15;18.00;69.00
8707;DHT22;4390;49.302;9.306;2023-05-24T14:36:42;18.00;69.90
8707;DHT22;4390;49.302;9.306;2023-05-24T14:39:10;18.20;70.60
8707;DHT22;4390;49.302;9.306;2023-05-24T14:41:37;18.40;69.40
8707;DHT22;4390;49.302;9.306;2023-05-24T14:44:04;18.40;69.70
8707;DHT22;4390;49.302;9.306;2023-05-24T14:46:31;18.40;69.80
8707;DHT22;4390;49.302;9.306;2023-05-24T14:48:58;18.50;69.80
8707;DHT22;4390;49.302;9.306;2023-05-24T14:51:25;18.80;69.60
8707;DHT22;4390;49.302;9.306;2023-05-24T14:53:52;19.00;68.60
8707;DHT22;4390;49.302;9.306;2023-05-24T14:56:19;18.80;68.30
8707;DHT22;4390;49.302;9.306;2023-05-24T14:58:46;18.70;68.00
8707;DHT22;4390;49.302;9.306;2023-05-24T15:01:12;18.70;68.20
8707;DHT22;4390;49.302;9.306;2023-05-24T15:03:40;18.80;68.60
8707;DHT22;4390;49.302;9.306;2023-05-24T15:06:07;18.80;68.90
8707;DHT22;4390;49.302;9.306;2023-05-24T15:08:34;18.90;68.00
8707;DHT22;4390;49.302;9.306;2023-05-24T15:11:00;18.90;68.80
8707;DHT22;4390;49.302;9.306;2023-05-24T15:13:27;18.90;68.50
8707;DHT22;4390;49.302;9.306;2023-05-24T15:15:54;18.80;68.30
8707;DHT22;4390;49.302;9.306;2023-05-24T15:18:28;18.80;69.20
8707;DHT22;4390;49.302;9.306;2023-05-24T15:20:55;18.90;68.90
8707;DHT22;4390;49.302;9.306;2023-05-24T15:23:23;18.80;68.70
8707;DHT22;4390;49.302;9.306;2023-05-24T15:25:50;19.00;68.30
8707;DHT22;4390;49.302;9.306;2023-05-24T15:28:17;19.20;67.70
8707;DHT22;4390;49.302;9.306;2023-05-24T15:30:44;19.40;67.90
8707;DHT22;4390;49.302;9.306;2023-05-24T15:33:12;19.40;67.70
8707;DHT22;4390;49.302;9.306;2023-05-24T15:35:40;19.30;67.30
8707;DHT22;4390;49.302;9.306;2023-05-24T15:38:07;19.40;67.40
8707;DHT22;4390;49.302;9.306;2023-05-24T15:40:33;19.10;67.60
8707;DHT22;4390;49.302;9.306;2023-05-24T15:43:00;19.00;68.10
8707;DHT22;4390;49.302;9.306;2023-05-24T15:45:27;19.10;67.80
8707;DHT22;4390;49.302;9.306;2023-05-24T15:47:54;19.10;67.30
8707;DHT22;4390;49.302;9.306;2023-05-24T15:50:21;18.90;67.40
8707;DHT22;4390;49.302;9.306;2023-05-24T15:53:08;18.80;67.80
8707;DHT22;4390;49.302;9.306;2023-05-24T15:55:35;18.90;68.60
8707;DHT22;4390;49.302;9.306;2023-05-24T15:58:02;18.90;69.30
8707;DHT22;4390;49.302;9.306;2023-05-24T16:00:29;18.80;69.40
8707;DHT22;4390;49.302;9.306;2023-05-24T16:02:56;18.70;68.50
8707;DHT22;4390;49.302;9.306;2023-05-24T16:05:23;18.70;68.50
8707;DHT22;4390;49.302;9.306;2023-05-24T16:07:50;18.80;68.70
8707;DHT22;4390;49.302;9.306;2023-05-24T16:10:17;18.70;68.50
8707;DHT22;4390;49.302;9.306;2023-05-24T16:12:44;18.70;68.40
8707;DHT22;4390;49.302;9.306;2023-05-24T16:15:11;18.60;68.60
8707;DHT22;4390;49.302;9.306;2023-05-24T16:17:38;18.50;68.80
8707;DHT22;4390;49.302;9.306;2023-05-24T16:20:05;18.50;68.50
8707;DHT22;4390;49.302;9.306;2023-05-24T16:22:32;18.60;68.00
8707;DHT22;4390;49.302;9.306;2023-05-24T16:25:00;18.50;68.10
8707;DHT22;4390;49.302;9.306;2023-05-24T16:27:27;18.40;68.30
8707;DHT22;4390;49.302;9.306;2023-05-24T16:29:54;18.30;68.40
8707;DHT22;4390;49.302;9.306;2023-05-24T16:32:21;18.30;67.90
8707;DHT22;4390;49.302;9.306;2023-05-24T16:34:47;18.20;67.60
8707;DHT22;4390;49.302;9.306;2023-05-24T16:37:22;18.20;67.70